Terminal Aerodrome Forecast
Issued by NWS Austin/San Antonio, TX

Current Version | Previous Version | Text Only | Print | Product List | Glossary On
Versions: 1 2 3 4 5 6 7 8 9 10 11 12 13 14 15
000
FTUS44 KEWX 161720
TAFSAT
TAF
KSAT 161720Z 1618/1724 16016KT P6SM SCT040 BKN250
     FM170600 16011KT P6SM BKN012
     FM171600 16017KT P6SM SCT040=

USA.gov is the U.S. government's official web portal to all federal, state and local government web resources and services.